Elkview, West Virginia
Current Conditions -  °F | °C
As of 10:14 AM on Thursday 23 Oct 2014 (Local Time) from KCRW Reporting Station
Overcast Overcast  
Wind Chill: 48°   Ceiling: 1100
Heat Index: 48°   Visibility: 10mi
Dew Point: 43°   Wind: 0mph
Humidity: 83%   Direction: NA
Pressure: 30.22"   Gusts: NA
Location:  38.44°N, 81.48°W
Report Text: KCRW 231414Z 00000KT 10SM BKN011 OVC039 09/06 A3022 RMK AO2 T00890061
Loading
Personal Weather Stations






























Interactive Weather Map
Tropical Storm Tracking
New forecast layout! Learn more

10-Day Weather Forecast

Advertisements
Track Severe Weather on mobile